地図

経路データ

SID SEASON NUMBER BASIN SUBBASIN NAME ISO_TIME NATURE LAT LON WMO_WIND WMO_PRES WMO_AGENCY TRACK_TYPE DIST2LAND LANDFALL IFLAG USA_AGENCY USA_ATCF_ID USA_LAT USA_LON USA_RECORD USA_STATUS USA_WIND USA_PRES USA_SSHS USA_R34_NE USA_R34_SE USA_R34_SW USA_R34_NW USA_R50_NE USA_R50_SE USA_R50_SW USA_R50_NW USA_R64_NE USA_R64_SE USA_R64_SW USA_R64_NW USA_POCI USA_ROCI USA_RMW USA_EYE TOKYO_LAT TOKYO_LON TOKYO_GRADE TOKYO_WIND TOKYO_PRES TOKYO_R50_DIR TOKYO_R50_LONG TOKYO_R50_SHORT TOKYO_R30_DIR TOKYO_R30_LONG TOKYO_R30_SHORT TOKYO_LAND CMA_LAT CMA_LON CMA_CAT CMA_WIND CMA_PRES HKO_LAT HKO_LON HKO_CAT HKO_WIND HKO_PRES NEWDELHI_LAT NEWDELHI_LON NEWDELHI_GRADE NEWDELHI_WIND NEWDELHI_PRES NEWDELHI_CI NEWDELHI_DP NEWDELHI_POCI REUNION_LAT REUNION_LON REUNION_TYPE REUNION_WIND REUNION_PRES REUNION_TNUM REUNION_CI REUNION_RMW REUNION_R34_NE REUNION_R34_SE REUNION_R34_SW REUNION_R34_NW REUNION_R50_NE REUNION_R50_SE REUNION_R50_SW REUNION_R50_NW REUNION_R64_NE REUNION_R64_SE REUNION_R64_SW REUNION_R64_NW BOM_LAT BOM_LON BOM_TYPE BOM_WIND BOM_PRES BOM_TNUM BOM_CI BOM_RMW BOM_R34_NE BOM_R34_SE BOM_R34_SW BOM_R34_NW BOM_R50_NE BOM_R50_SE BOM_R50_SW BOM_R50_NW BOM_R64_NE BOM_R64_SE BOM_R64_SW BOM_R64_NW BOM_ROCI BOM_POCI BOM_EYE BOM_POS_METHOD BOM_PRES_METHOD NADI_LAT NADI_LON NADI_CAT NADI_WIND NADI_PRES WELLINGTON_LAT WELLINGTON_LON WELLINGTON_WIND WELLINGTON_PRES DS824_LAT DS824_LON DS824_STAGE DS824_WIND DS824_PRES TD9636_LAT TD9636_LON TD9636_STAGE TD9636_WIND TD9636_PRES TD9635_LAT TD9635_LON TD9635_WIND TD9635_PRES TD9635_ROCI NEUMANN_LAT NEUMANN_LON NEUMANN_CLASS NEUMANN_WIND NEUMANN_PRES MLC_LAT MLC_LON MLC_CLASS MLC_WIND MLC_PRES USA_GUST BOM_GUST BOM_GUST_PER REUNION_GUST REUNION_GUST_PER USA_SEAHGT USA_SEARAD_NE USA_SEARAD_SE USA_SEARAD_SW USA_SEARAD_NW STORM_SPEED STORM_DIR
1952186N21089 1952 37 NI BB NOT_NAMED 1952-07-03 18:00:00 TS 20.5000 88.7000 main 124 90 O________O____ jtwc_io IO071952 20.5000 88.7000 -1 20.5000 88.7000 TC 7 22
1952186N21089 1952 37 NI BB NOT_NAMED 1952-07-03 21:00:00 TS 20.8050 88.8347 main 90 56 P________P____ IO071952 20.8050 88.8347 -1 20.8050 88.8347 TC 6 9
1952186N21089 1952 37 NI BB NOT_NAMED 1952-07-04 00:00:00 TS 21.1000 88.8000 main 56 22 O________O____ jtwc_io IO071952 21.1000 88.8000 -1 21.1000 88.8000 TC 35 7 331
1952186N21089 1952 37 NI BB NOT_NAMED 1952-07-04 03:00:00 TS 21.3867 88.4844 main 22 0 P________PO___ IO071952 21.3851 88.4825 -1 21.3851 88.4825 TC 35 21.4000 88.5000 3 10 310
1952186N21089 1952 37 NI BB NOT_NAMED 1952-07-04 06:00:00 TS 21.7161 88.0026 main 15 0 O________OP___ jtwc_io IO071952 21.7000 88.0000 -1 21.7000 88.0000 TC 35 21.7807 88.0131 3 12 309
1952186N21089 1952 37 NI BB NOT_NAMED 1952-07-04 09:00:00 TS 22.1132 87.5164 main 0 0 P________PP___ IO071952 22.1000 87.5151 -1 22.1000 87.5151 TC 30 22.1486 87.5199 3 12 310
1952186N21089 1952 37 NI BB NOT_NAMED 1952-07-04 12:00:00 TS 22.4974 87.0056 main 0 0 O________OP___ jtwc_io IO071952 22.5000 87.0000 -1 22.5000 87.0000 TC 25 22.4922 87.0167 3 12 307
1952186N21089 1952 37 NI BB NOT_NAMED 1952-07-04 15:00:00 TS 22.8198 86.5048 main 0 0 P________PO___ IO071952 22.8298 86.5073 -1 22.8298 86.5073 TC 25 22.8000 86.5000 1 11 302
1952186N21089 1952 37 NI BB NOT_NAMED 1952-07-04 18:00:00 TS 23.0882 85.9891 main 0 0 O________OP___ jtwc_io IO071952 23.1000 86.0000 -1 23.1000 86.0000 TC 25 23.0645 85.9674 1 11 297
1952186N21089 1952 37 NI BB NOT_NAMED 1952-07-04 21:00:00 TS 23.3080 85.4502 main 0 0 P________PP___ IO071952 23.3148 85.4647 -1 23.3148 85.4647 TC 25 23.2944 85.4212 1 11 292
1952186N21089 1952 37 NI BB NOT_NAMED 1952-07-05 00:00:00 TS 23.5007 84.8881 main 0 0 O________OP___ jtwc_io IO071952 23.5000 84.9000 -1 23.5000 84.9000 TC 25 23.5020 84.8644 1 11 290
1952186N21089 1952 37 NI BB NOT_NAMED 1952-07-05 03:00:00 TS 23.7000 84.2999 main 0 0 P________PO___ IO071952 23.6999 84.2999 -1 23.6999 84.2999 TC 25 23.7000 84.3000 1 12 291
1952186N21089 1952 37 NI BB NOT_NAMED 1952-07-05 06:00:00 TS 23.9063 83.7107 main 0 0 O________OP___ jtwc_io IO071952 23.9000 83.7000 -1 23.9000 83.7000 TC 25 23.9189 83.7320 1 11 291
1952186N21089 1952 37 NI BB NOT_NAMED 1952-07-05 09:00:00 TS 24.1095 83.1523 main 0 0 P________PP___ IO071952 24.0996 83.1498 -1 24.0996 83.1498 TC 25 24.1293 83.1573 1 11 292
1952186N21089 1952 37 NI BB NOT_NAMED 1952-07-05 12:00:00 TS 24.3084 82.5930 main 0 0 O________OP___ jtwc_io IO071952 24.3000 82.6000 -1 24.3000 82.6000 TC 25 24.3251 82.5789 1 11 291
1952186N21089 1952 37 NI BB NOT_NAMED 1952-07-05 15:00:00 TS 24.5100 82.0001 main 0 0 P________PO___ IO071952 24.5149 82.0001 -1 24.5149 82.0001 TC 25 24.5000 82.0000 1 12 289
1952186N21089 1952 37 NI BB NOT_NAMED 1952-07-05 18:00:00 TS 24.6877 81.3934 main 0 0 O________OP___ jtwc_io IO071952 24.7000 81.4000 -1 24.7000 81.4000 TC 25 24.6632 81.3803 1 11 286
1952186N21089 1952 37 NI BB NOT_NAMED 1952-07-05 21:00:00 TS 24.8159 80.8174 main 0 0 P________PP___ IO071952 24.8222 80.8423 -1 24.8222 80.8423 TC 25 24.8032 80.7676 1 10 282
1952186N21089 1952 37 NI BB NOT_NAMED 1952-07-06 00:00:00 TS 24.9055 80.2654 main 0 0 O________OP___ jtwc_io IO071952 24.9000 80.3000 -1 24.9000 80.3000 TC 25 24.9165 80.1961 1 10 279
1952186N21089 1952 37 NI BB NOT_NAMED 1952-07-06 03:00:00 TS 24.9718 79.7033 main 0 0 P________PO___ IO071952 24.9577 79.7049 -1 24.9577 79.7049 TC 25 25.0000 79.7000 1 9 277
1952186N21089 1952 37 NI BB NOT_NAMED 1952-07-06 06:00:00 TS 25.0175 79.2374 main 0 0 O________OP___ jtwc_io IO071952 25.0000 79.2000 -1 25.0000 79.2000 TC 25 25.0526 79.3121 1 7 278
1952186N21089 1952 37 NI BB NOT_NAMED 1952-07-06 09:00:00 TS 25.0643 78.9372 main 0 0 P________PP___ IO071952 25.0571 78.9050 -1 25.0571 78.9050 TC 25 25.0786 79.0017 1 5 279
1952186N21089 1952 37 NI BB NOT_NAMED 1952-07-06 12:00:00 TS 25.0968 78.7135 main 0 0 O________OP___ jtwc_io IO071952 25.1000 78.7000 -1 25.1000 78.7000 TC 25 25.0904 78.7405 1 4 275
1952186N21089 1952 37 NI BB NOT_NAMED 1952-07-06 15:00:00 TS 25.1000 78.4666 main 0 0 P________PO___ IO071952 25.1000 78.4499 -1 25.1000 78.4499 TC 25 25.1000 78.5000 1 4 271
1952186N21089 1952 37 NI BB NOT_NAMED 1952-07-06 18:00:00 TS 25.1067 78.2227 main 0 0 O________OP___ jtwc_io IO071952 25.1000 78.2000 -1 25.1000 78.2000 TC 25 25.1169 78.2569 1 4 275
1952186N21089 1952 37 NI AS NOT_NAMED 1952-07-06 21:00:00 TS 25.1390 77.9749 main 0 0 P________PP___ IO071952 25.1376 77.9501 -1 25.1376 77.9501 TC 25 25.1408 78.0079 1 5 280
1952186N21089 1952 37 NI AS NOT_NAMED 1952-07-07 00:00:00 TS 25.1847 77.7275 main 0 0 O________OP___ jtwc_io IO071952 25.2000 77.7000 -1 25.2000 77.7000 TC 25 25.1694 77.7550 1 4 278
1952186N21089 1952 37 NI AS NOT_NAMED 1952-07-07 03:00:00 NR 25.2000 77.5000 main 0 __________O___ IO071952 -1 TC 25.2000 77.5000 1 4 274

IBTrACS Databaseについて

本データベースは、米国NOAAが公開する1842年以降の世界の熱帯低気圧のベストトラックデータアーカイブInternational Best Track Archive for Climate Stewardship (IBTrACS)を、ウェブで閲覧しやすい形式に変換したものです。

最終更新日:2021-11-26